sensor_id;sensor_type;location;lat;lon;timestamp;pressure;altitude;pressure_sealevel;temperature;humidity
65758;BME280;52495;52.208;5.158;2023-03-13T00:00:47;100050.22;;;9.34;100.00
65758;BME280;52495;52.208;5.158;2023-03-13T00:03:14;100048.53;;;9.31;100.00
65758;BME280;52495;52.208;5.158;2023-03-13T00:05:41;100042.56;;;9.31;100.00
65758;BME280;52495;52.208;5.158;2023-03-13T00:08:08;100026.22;;;9.32;100.00
65758;BME280;52495;52.208;5.158;2023-03-13T00:10:36;100031.31;;;9.33;100.00
65758;BME280;52495;52.208;5.158;2023-03-13T00:13:03;100022.78;;;9.31;100.00
65758;BME280;52495;52.208;5.158;2023-03-13T00:15:31;100023.66;;;9.32;100.00
65758;BME280;52495;52.208;5.158;2023-03-13T00:17:58;100018.56;;;9.29;100.00
65758;BME280;52495;52.208;5.158;2023-03-13T00:20:25;100011.59;;;9.32;100.00
65758;BME280;52495;52.208;5.158;2023-03-13T00:22:52;100009.06;;;9.31;100.00
65758;BME280;52495;52.208;5.158;2023-03-13T00:25:19;99996.16;;;9.32;100.00
65758;BME280;52495;52.208;5.158;2023-03-13T00:27:46;99990.16;;;9.32;100.00
65758;BME280;52495;52.208;5.158;2023-03-13T00:30:14;99982.50;;;9.30;100.00
65758;BME280;52495;52.208;5.158;2023-03-13T00:32:43;99972.19;;;9.30;100.00
65758;BME280;52495;52.208;5.158;2023-03-13T00:35:10;99960.19;;;9.29;100.00
65758;BME280;52495;52.208;5.158;2023-03-13T00:37:37;99954.16;;;9.30;100.00
65758;BME280;52495;52.208;5.158;2023-03-13T00:40:05;99946.44;;;9.30;100.00
65758;BME280;52495;52.208;5.158;2023-03-13T00:42:32;99937.88;;;9.28;100.00
65758;BME280;52495;52.208;5.158;2023-03-13T00:44:59;99933.50;;;9.32;100.00
65758;BME280;52495;52.208;5.158;2023-03-13T00:47:26;99932.75;;;9.28;100.00
65758;BME280;52495;52.208;5.158;2023-03-13T00:49:54;99917.28;;;9.28;100.00
65758;BME280;52495;52.208;5.158;2023-03-13T00:52:20;99916.41;;;9.27;100.00
65758;BME280;52495;52.208;5.158;2023-03-13T00:54:48;99904.41;;;9.28;100.00
65758;BME280;52495;52.208;5.158;2023-03-13T00:57:15;99897.50;;;9.29;100.00
65758;BME280;52495;52.208;5.158;2023-03-13T00:59:42;99882.84;;;9.31;100.00
65758;BME280;52495;52.208;5.158;2023-03-13T01:02:09;99883.78;;;9.28;100.00
65758;BME280;52495;52.208;5.158;2023-03-13T01:04:35;99887.19;;;9.29;100.00
65758;BME280;52495;52.208;5.158;2023-03-13T01:07:04;99876.81;;;9.32;100.00
65758;BME280;52495;52.208;5.158;2023-03-13T01:09:30;99865.56;;;9.34;100.00
65758;BME280;52495;52.208;5.158;2023-03-13T01:11:57;99863.06;;;9.33;100.00
65758;BME280;52495;52.208;5.158;2023-03-13T01:14:24;99862.13;;;9.35;100.00
65758;BME280;52495;52.208;5.158;2023-03-13T01:16:52;99856.06;;;9.38;100.00
65758;BME280;52495;52.208;5.158;2023-03-13T01:19:19;99849.16;;;9.38;100.00
65758;BME280;52495;52.208;5.158;2023-03-13T01:21:46;99842.28;;;9.39;100.00
65758;BME280;52495;52.208;5.158;2023-03-13T01:24:14;99829.94;;;9.50;100.00
65758;BME280;52495;52.208;5.158;2023-03-13T01:26:42;99812.88;;;9.46;100.00
65758;BME280;52495;52.208;5.158;2023-03-13T01:29:09;99818.06;;;9.45;100.00
65758;BME280;52495;52.208;5.158;2023-03-13T01:31:36;99804.25;;;9.47;100.00
65758;BME280;52495;52.208;5.158;2023-03-13T01:34:05;99792.16;;;9.49;100.00
65758;BME280;52495;52.208;5.158;2023-03-13T01:36:34;99782.66;;;9.51;100.00
65758;BME280;52495;52.208;5.158;2023-03-13T01:39:02;99786.88;;;9.54;100.00
65758;BME280;52495;52.208;5.158;2023-03-13T01:41:31;99779.09;;;9.55;100.00
65758;BME280;52495;52.208;5.158;2023-03-13T01:43:59;99773.66;;;9.65;100.00
65758;BME280;52495;52.208;5.158;2023-03-13T01:46:35;99768.66;;;9.60;100.00
65758;BME280;52495;52.208;5.158;2023-03-13T01:49:32;99765.22;;;9.60;100.00
65758;BME280;52495;52.208;5.158;2023-03-13T01:52:16;99764.31;;;9.62;100.00
65758;BME280;52495;52.208;5.158;2023-03-13T01:54:51;99766.72;;;9.67;100.00
65758;BME280;52495;52.208;5.158;2023-03-13T01:57:25;99759.88;;;9.66;100.00
65758;BME280;52495;52.208;5.158;2023-03-13T01:59:56;99746.81;;;9.72;100.00
65758;BME280;52495;52.208;5.158;2023-03-13T02:02:25;99722.56;;;9.78;100.00
65758;BME280;52495;52.208;5.158;2023-03-13T02:04:55;99720.84;;;9.78;100.00
65758;BME280;52495;52.208;5.158;2023-03-13T02:07:26;99714.84;;;9.78;100.00
65758;BME280;52495;52.208;5.158;2023-03-13T02:09:56;99721.72;;;9.77;100.00
65758;BME280;52495;52.208;5.158;2023-03-13T02:12:28;99700.13;;;9.81;100.00
65758;BME280;52495;52.208;5.158;2023-03-13T02:14:57;99696.72;;;9.81;100.00
65758;BME280;52495;52.208;5.158;2023-03-13T02:17:25;99691.44;;;9.84;100.00
65758;BME280;52495;52.208;5.158;2023-03-13T02:19:53;99688.81;;;9.85;100.00
65758;BME280;52495;52.208;5.158;2023-03-13T02:22:23;99678.44;;;9.87;100.00
65758;BME280;52495;52.208;5.158;2023-03-13T02:24:57;99675.84;;;9.89;100.00
65758;BME280;52495;52.208;5.158;2023-03-13T02:27:29;99675.78;;;9.90;100.00
65758;BME280;52495;52.208;5.158;2023-03-13T02:29:57;99659.34;;;9.93;100.00
65758;BME280;52495;52.208;5.158;2023-03-13T02:32:25;99669.56;;;9.96;100.00
65758;BME280;52495;52.208;5.158;2023-03-13T02:34:55;99660.03;;;9.98;100.00
65758;BME280;52495;52.208;5.158;2023-03-13T02:37:24;99659.06;;;10.02;100.00
65758;BME280;52495;52.208;5.158;2023-03-13T02:39:54;99648.66;;;10.03;100.00
65758;BME280;52495;52.208;5.158;2023-03-13T02:42:23;99655.34;;;10.09;100.00
65758;BME280;52495;52.208;5.158;2023-03-13T02:44:54;99636.41;;;10.10;100.00
65758;BME280;52495;52.208;5.158;2023-03-13T02:47:24;99643.22;;;10.13;100.00
65758;BME280;52495;52.208;5.158;2023-03-13T02:49:53;99638.78;;;10.16;100.00
65758;BME280;52495;52.208;5.158;2023-03-13T02:52:23;99638.72;;;10.18;100.00
65758;BME280;52495;52.208;5.158;2023-03-13T02:54:54;99648.00;;;10.24;100.00
65758;BME280;52495;52.208;5.158;2023-03-13T02:57:23;99636.72;;;10.26;100.00
65758;BME280;52495;52.208;5.158;2023-03-13T02:59:49;99636.56;;;10.31;100.00
65758;BME280;52495;52.208;5.158;2023-03-13T03:02:17;99645.88;;;10.35;100.00
65758;BME280;52495;52.208;5.158;2023-03-13T03:04:44;99643.22;;;10.38;100.00
65758;BME280;52495;52.208;5.158;2023-03-13T03:07:12;99650.72;;;10.44;100.00
65758;BME280;52495;52.208;5.158;2023-03-13T03:09:39;99653.88;;;10.53;100.00
65758;BME280;52495;52.208;5.158;2023-03-13T03:12:10;99651.13;;;10.57;100.00
65758;BME280;52495;52.208;5.158;2023-03-13T03:14:37;99641.47;;;10.62;100.00
65758;BME280;52495;52.208;5.158;2023-03-13T03:17:05;99636.97;;;10.68;100.00
65758;BME280;52495;52.208;5.158;2023-03-13T03:19:33;99634.25;;;10.72;100.00
65758;BME280;52495;52.208;5.158;2023-03-13T03:22:00;99634.00;;;10.78;100.00
65758;BME280;52495;52.208;5.158;2023-03-13T03:24:27;99623.63;;;10.80;100.00
65758;BME280;52495;52.208;5.158;2023-03-13T03:26:53;99617.38;;;10.86;100.00
65758;BME280;52495;52.208;5.158;2023-03-13T03:29:28;99619.84;;;10.89;100.00
65758;BME280;52495;52.208;5.158;2023-03-13T03:31:56;99612.09;;;10.89;100.00
65758;BME280;52495;52.208;5.158;2023-03-13T03:34:23;99615.41;;;10.92;100.00
65758;BME280;52495;52.208;5.158;2023-03-13T03:36:52;99623.06;;;10.94;100.00
65758;BME280;52495;52.208;5.158;2023-03-13T03:39:19;99618.69;;;10.96;100.00
65758;BME280;52495;52.208;5.158;2023-03-13T03:41:46;99619.44;;;11.00;100.00
65758;BME280;52495;52.208;5.158;2023-03-13T03:44:13;99615.00;;;11.03;100.00
65758;BME280;52495;52.208;5.158;2023-03-13T03:46:54;99602.00;;;11.05;100.00
65758;BME280;52495;52.208;5.158;2023-03-13T03:49:22;99607.16;;;11.05;100.00
65758;BME280;52495;52.208;5.158;2023-03-13T03:51:49;99601.19;;;11.04;100.00
65758;BME280;52495;52.208;5.158;2023-03-13T03:54:23;99600.00;;;11.12;100.00
65758;BME280;52495;52.208;5.158;2023-03-13T03:56:50;99582.00;;;11.10;100.00
65758;BME280;52495;52.208;5.158;2023-03-13T03:59:17;99588.06;;;11.09;100.00
65758;BME280;52495;52.208;5.158;2023-03-13T04:01:46;99581.19;;;11.10;100.00
65758;BME280;52495;52.208;5.158;2023-03-13T04:04:18;99574.06;;;11.15;100.00
65758;BME280;52495;52.208;5.158;2023-03-13T04:06:49;99574.13;;;11.13;100.00
65758;BME280;52495;52.208;5.158;2023-03-13T04:09:16;99577.56;;;11.14;100.00
65758;BME280;52495;52.208;5.158;2023-03-13T04:11:44;99566.19;;;11.18;100.00
65758;BME280;52495;52.208;5.158;2023-03-13T04:14:11;99577.25;;;11.21;100.00
65758;BME280;52495;52.208;5.158;2023-03-13T04:16:38;99566.97;;;11.20;100.00
65758;BME280;52495;52.208;5.158;2023-03-13T04:19:05;99572.06;;;11.21;100.00
65758;BME280;52495;52.208;5.158;2023-03-13T04:21:32;99585.78;;;11.23;100.00
65758;BME280;52495;52.208;5.158;2023-03-13T04:24:07;99562.53;;;11.23;100.00
65758;BME280;52495;52.208;5.158;2023-03-13T04:26:35;99554.72;;;11.25;100.00
65758;BME280;52495;52.208;5.158;2023-03-13T04:29:03;99557.31;;;11.25;100.00
65758;BME280;52495;52.208;5.158;2023-03-13T04:31:45;99549.41;;;11.28;100.00
65758;BME280;52495;52.208;5.158;2023-03-13T04:34:27;99550.25;;;11.29;100.00
65758;BME280;52495;52.208;5.158;2023-03-13T04:37:06;99555.34;;;11.30;100.00
65758;BME280;52495;52.208;5.158;2023-03-13T04:39:51;99538.13;;;11.31;100.00
65758;BME280;52495;52.208;5.158;2023-03-13T04:42:41;99539.81;;;11.32;100.00
65758;BME280;52495;52.208;5.158;2023-03-13T04:45:23;99544.78;;;11.36;100.00
65758;BME280;52495;52.208;5.158;2023-03-13T04:48:18;99537.81;;;11.38;100.00
65758;BME280;52495;52.208;5.158;2023-03-13T04:51:14;99537.72;;;11.40;100.00
65758;BME280;52495;52.208;5.158;2023-03-13T04:53:58;99529.97;;;11.40;100.00
65758;BME280;52495;52.208;5.158;2023-03-13T04:56:43;99541.06;;;11.44;100.00
65758;BME280;52495;52.208;5.158;2023-03-13T04:59:28;99541.09;;;11.42;100.00
65758;BME280;52495;52.208;5.158;2023-03-13T05:02:15;99536.63;;;11.46;100.00
65758;BME280;52495;52.208;5.158;2023-03-13T05:04:59;99539.22;;;11.46;100.00
65758;BME280;52495;52.208;5.158;2023-03-13T05:07:44;99530.63;;;11.45;100.00
65758;BME280;52495;52.208;5.158;2023-03-13T05:10:31;99527.19;;;11.45;100.00
65758;BME280;52495;52.208;5.158;2023-03-13T05:13:18;99532.25;;;11.48;100.00
65758;BME280;52495;52.208;5.158;2023-03-13T05:15:54;99525.25;;;11.50;100.00
65758;BME280;52495;52.208;5.158;2023-03-13T05:18:51;99524.31;;;11.52;100.00
65758;BME280;52495;52.208;5.158;2023-03-13T05:21:36;99512.22;;;11.53;100.00
65758;BME280;52495;52.208;5.158;2023-03-13T05:24:23;99525.13;;;11.53;100.00
65758;BME280;52495;52.208;5.158;2023-03-13T05:26:50;99513.03;;;11.53;100.00
65758;BME280;52495;52.208;5.158;2023-03-13T05:29:35;99501.63;;;11.59;100.00
65758;BME280;52495;52.208;5.158;2023-03-13T05:32:21;99496.38;;;11.61;100.00
65758;BME280;52495;52.208;5.158;2023-03-13T05:35:03;99503.94;;;11.65;100.00
65758;BME280;52495;52.208;5.158;2023-03-13T05:37:49;99502.97;;;11.68;100.00
65758;BME280;52495;52.208;5.158;2023-03-13T05:40:27;99494.16;;;11.72;100.00
65758;BME280;52495;52.208;5.158;2023-03-13T05:43:13;99484.66;;;11.73;100.00
65758;BME280;52495;52.208;5.158;2023-03-13T05:46:06;99490.50;;;11.78;100.00
65758;BME280;52495;52.208;5.158;2023-03-13T05:48:55;99490.41;;;11.79;100.00
65758;BME280;52495;52.208;5.158;2023-03-13T05:51:43;99479.16;;;11.80;100.00
65758;BME280;52495;52.208;5.158;2023-03-13T05:54:24;99484.38;;;11.79;100.00
65758;BME280;52495;52.208;5.158;2023-03-13T05:57:10;99480.84;;;11.81;100.00
65758;BME280;52495;52.208;5.158;2023-03-13T06:00:04;99482.38;;;11.86;100.00
65758;BME280;52495;52.208;5.158;2023-03-13T06:02:48;99471.97;;;11.87;100.00
65758;BME280;52495;52.208;5.158;2023-03-13T06:05:21;99463.16;;;11.91;100.00
65758;BME280;52495;52.208;5.158;2023-03-13T06:07:50;99464.06;;;11.90;100.00
65758;BME280;52495;52.208;5.158;2023-03-13T06:10:17;99474.34;;;11.92;100.00
65758;BME280;52495;52.208;5.158;2023-03-13T06:12:44;99459.66;;;11.92;100.00
65758;BME280;52495;52.208;5.158;2023-03-13T06:15:17;99456.09;;;11.95;100.00
65758;BME280;52495;52.208;5.158;2023-03-13T06:17:56;99463.78;;;11.96;100.00
65758;BME280;52495;52.208;5.158;2023-03-13T06:20:23;99455.84;;;12.01;100.00
65758;BME280;52495;52.208;5.158;2023-03-13T06:22:51;99479.13;;;12.01;100.00
65758;BME280;52495;52.208;5.158;2023-03-13T06:25:18;99476.56;;;12.01;100.00
65758;BME280;52495;52.208;5.158;2023-03-13T06:27:44;99466.13;;;12.03;100.00
65758;BME280;52495;52.208;5.158;2023-03-13T06:30:12;99472.97;;;12.04;100.00
65758;BME280;52495;52.208;5.158;2023-03-13T06:32:38;99485.78;;;12.07;100.00
65758;BME280;52495;52.208;5.158;2023-03-13T06:35:06;99475.28;;;12.10;100.00
65758;BME280;52495;52.208;5.158;2023-03-13T06:37:33;99477.72;;;12.13;100.00
65758;BME280;52495;52.208;5.158;2023-03-13T06:40:01;99478.34;;;12.18;100.00
65758;BME280;52495;52.208;5.158;2023-03-13T06:42:31;99473.13;;;12.20;100.00
65758;BME280;52495;52.208;5.158;2023-03-13T06:44:58;99479.34;;;12.16;100.00
65758;BME280;52495;52.208;5.158;2023-03-13T06:47:24;99475.00;;;12.16;100.00
65758;BME280;52495;52.208;5.158;2023-03-13T06:49:51;99488.91;;;12.13;100.00
65758;BME280;52495;52.208;5.158;2023-03-13T06:52:18;99484.44;;;12.17;100.00
65758;BME280;52495;52.208;5.158;2023-03-13T06:54:44;99489.69;;;12.16;100.00
65758;BME280;52495;52.208;5.158;2023-03-13T06:57:13;99494.91;;;12.14;100.00
65758;BME280;52495;52.208;5.158;2023-03-13T06:59:40;99502.84;;;12.11;100.00
65758;BME280;52495;52.208;5.158;2023-03-13T07:02:08;99486.69;;;12.06;100.00
65758;BME280;52495;52.208;5.158;2023-03-13T07:04:35;99490.25;;;12.03;100.00
65758;BME280;52495;52.208;5.158;2023-03-13T07:07:02;99489.59;;;11.98;100.00
65758;BME280;52495;52.208;5.158;2023-03-13T07:09:29;99494.06;;;11.94;100.00
65758;BME280;52495;52.208;5.158;2023-03-13T07:11:56;99500.31;;;11.89;100.00
65758;BME280;52495;52.208;5.158;2023-03-13T07:14:25;99485.03;;;11.84;100.00
65758;BME280;52495;52.208;5.158;2023-03-13T07:16:52;99494.66;;;11.80;100.00
65758;BME280;52495;52.208;5.158;2023-03-13T07:19:19;99491.19;;;11.81;100.00
65758;BME280;52495;52.208;5.158;2023-03-13T07:21:45;99496.56;;;11.77;100.00
65758;BME280;52495;52.208;5.158;2023-03-13T07:24:14;99500.09;;;11.74;100.00
65758;BME280;52495;52.208;5.158;2023-03-13T07:26:40;99501.78;;;11.75;100.00
65758;BME280;52495;52.208;5.158;2023-03-13T07:29:07;99498.38;;;11.75;100.00
65758;BME280;52495;52.208;5.158;2023-03-13T07:31:35;99483.88;;;11.71;100.00
65758;BME280;52495;52.208;5.158;2023-03-13T07:34:03;99500.22;;;11.71;100.00
65758;BME280;52495;52.208;5.158;2023-03-13T07:36:33;99488.28;;;11.68;100.00
65758;BME280;52495;52.208;5.158;2023-03-13T07:39:00;99504.56;;;11.71;100.00
65758;BME280;52495;52.208;5.158;2023-03-13T07:41:27;99510.78;;;11.66;100.00
65758;BME280;52495;52.208;5.158;2023-03-13T07:43:54;99505.81;;;11.62;100.00
65758;BME280;52495;52.208;5.158;2023-03-13T07:46:24;99505.88;;;11.60;100.00
65758;BME280;52495;52.208;5.158;2023-03-13T07:48:52;99519.72;;;11.59;100.00
65758;BME280;52495;52.208;5.158;2023-03-13T07:51:21;99511.06;;;11.60;100.00
65758;BME280;52495;52.208;5.158;2023-03-13T07:53:49;99516.22;;;11.60;100.00
65758;BME280;52495;52.208;5.158;2023-03-13T07:56:17;99514.59;;;11.58;100.00
65758;BME280;52495;52.208;5.158;2023-03-13T07:58:45;99511.88;;;11.61;100.00
65758;BME280;52495;52.208;5.158;2023-03-13T08:01:14;99517.84;;;11.63;100.00
65758;BME280;52495;52.208;5.158;2023-03-13T08:03:42;99503.94;;;11.65;100.00
65758;BME280;52495;52.208;5.158;2023-03-13T08:06:12;99503.81;;;11.68;100.00
65758;BME280;52495;52.208;5.158;2023-03-13T08:08:42;99484.59;;;11.74;100.00
65758;BME280;52495;52.208;5.158;2023-03-13T08:11:12;99482.78;;;11.76;100.00
65758;BME280;52495;52.208;5.158;2023-03-13T08:13:40;99468.59;;;11.85;100.00
65758;BME280;52495;52.208;5.158;2023-03-13T08:16:08;99473.63;;;11.88;100.00
65758;BME280;52495;52.208;5.158;2023-03-13T08:18:36;99476.66;;;11.98;100.00
65758;BME280;52495;52.208;5.158;2023-03-13T08:21:06;99474.88;;;12.00;100.00
65758;BME280;52495;52.208;5.158;2023-03-13T08:23:35;99475.56;;;12.04;100.00
65758;BME280;52495;52.208;5.158;2023-03-13T08:26:03;99463.31;;;12.07;100.00
65758;BME280;52495;52.208;5.158;2023-03-13T08:28:30;99457.75;;;12.17;100.00
65758;BME280;52495;52.208;5.158;2023-03-13T08:30:57;99456.84;;;12.18;100.00
65758;BME280;52495;52.208;5.158;2023-03-13T08:33:24;99469.63;;;12.21;100.00
65758;BME280;52495;52.208;5.158;2023-03-13T08:35:51;99451.56;;;12.19;100.00
65758;BME280;52495;52.208;5.158;2023-03-13T08:38:18;99453.16;;;12.22;100.00
65758;BME280;52495;52.208;5.158;2023-03-13T08:40:46;99447.94;;;12.23;100.00
65758;BME280;52495;52.208;5.158;2023-03-13T08:43:13;99449.75;;;12.21;100.00
65758;BME280;52495;52.208;5.158;2023-03-13T08:45:40;99440.53;;;12.16;100.00
65758;BME280;52495;52.208;5.158;2023-03-13T08:48:07;99443.91;;;12.18;100.00
65758;BME280;52495;52.208;5.158;2023-03-13T08:50:37;99455.28;;;12.13;100.00
65758;BME280;52495;52.208;5.158;2023-03-13T08:53:03;99451.09;;;12.11;100.00
65758;BME280;52495;52.208;5.158;2023-03-13T08:55:30;99456.19;;;12.12;100.00
65758;BME280;52495;52.208;5.158;2023-03-13T08:57:58;99444.72;;;12.18;100.00
65758;BME280;52495;52.208;5.158;2023-03-13T09:00:25;99452.22;;;12.24;100.00
65758;BME280;52495;52.208;5.158;2023-03-13T09:02:52;99446.81;;;12.29;100.00
65758;BME280;52495;52.208;5.158;2023-03-13T09:05:19;99428.25;;;12.38;100.00
65758;BME280;52495;52.208;5.158;2023-03-13T09:07:46;99432.72;;;12.54;100.00
65758;BME280;52495;52.208;5.158;2023-03-13T09:10:13;99432.16;;;12.65;100.00
65758;BME280;52495;52.208;5.158;2023-03-13T09:12:39;99414.38;;;12.76;99.10
65758;BME280;52495;52.208;5.158;2023-03-13T09:15:09;99425.78;;;12.89;98.04
65758;BME280;52495;52.208;5.158;2023-03-13T09:17:36;99415.97;;;12.96;97.57
65758;BME280;52495;52.208;5.158;2023-03-13T09:20:03;99409.78;;;12.99;96.77
65758;BME280;52495;52.208;5.158;2023-03-13T09:22:30;99408.88;;;13.00;95.67
65758;BME280;52495;52.208;5.158;2023-03-13T09:24:57;99405.59;;;12.96;94.21
65758;BME280;52495;52.208;5.158;2023-03-13T09:27:23;99426.31;;;12.96;94.21
65758;BME280;52495;52.208;5.158;2023-03-13T09:29:52;99405.38;;;13.01;92.69
65758;BME280;52495;52.208;5.158;2023-03-13T09:32:24;99399.34;;;13.00;92.68
65758;BME280;52495;52.208;5.158;2023-03-13T09:34:51;99394.09;;;13.02;93.15
65758;BME280;52495;52.208;5.158;2023-03-13T09:37:17;99397.38;;;13.05;92.15
65758;BME280;52495;52.208;5.158;2023-03-13T09:39:44;99378.16;;;13.10;91.91
65758;BME280;52495;52.208;5.158;2023-03-13T09:42:14;99372.75;;;13.14;92.23
65758;BME280;52495;52.208;5.158;2023-03-13T09:44:45;99368.91;;;13.21;93.08
65758;BME280;52495;52.208;5.158;2023-03-13T09:47:21;99364.38;;;13.25;92.84
65758;BME280;52495;52.208;5.158;2023-03-13T09:49:52;99360.41;;;13.35;92.55
65758;BME280;52495;52.208;5.158;2023-03-13T09:52:22;99353.03;;;13.45;92.32
65758;BME280;52495;52.208;5.158;2023-03-13T09:54:53;99347.59;;;13.50;91.45
65758;BME280;52495;52.208;5.158;2023-03-13T09:57:29;99351.44;;;13.59;90.45
65758;BME280;52495;52.208;5.158;2023-03-13T10:00:01;99359.97;;;13.61;90.32
65758;BME280;52495;52.208;5.158;2023-03-13T10:02:34;99338.16;;;13.65;90.21
65758;BME280;52495;52.208;5.158;2023-03-13T10:05:11;99335.72;;;13.78;90.28
65758;BME280;52495;52.208;5.158;2023-03-13T10:07:39;99318.72;;;13.88;89.31
65758;BME280;52495;52.208;5.158;2023-03-13T10:10:12;99327.00;;;13.95;89.25
65758;BME280;52495;52.208;5.158;2023-03-13T10:12:43;99330.41;;;13.95;88.16
65758;BME280;52495;52.208;5.158;2023-03-13T10:15:33;99321.56;;;14.00;87.65
65758;BME280;52495;52.208;5.158;2023-03-13T10:18:13;99328.09;;;14.07;87.68
65758;BME280;52495;52.208;5.158;2023-03-13T10:20:42;99331.06;;;14.15;86.81
65758;BME280;52495;52.208;5.158;2023-03-13T10:23:14;99314.22;;;14.22;86.19
65758;BME280;52495;52.208;5.158;2023-03-13T10:25:42;99313.88;;;14.29;85.57
65758;BME280;52495;52.208;5.158;2023-03-13T10:28:11;99307.69;;;14.31;84.04
65758;BME280;52495;52.208;5.158;2023-03-13T10:30:43;99311.84;;;14.34;83.54
65758;BME280;52495;52.208;5.158;2023-03-13T10:33:20;99290.31;;;14.32;83.58
65758;BME280;52495;52.208;5.158;2023-03-13T10:35:59;99303.44;;;14.45;83.36
65758;BME280;52495;52.208;5.158;2023-03-13T10:38:26;99301.97;;;14.55;82.47
65758;BME280;52495;52.208;5.158;2023-03-13T10:40:58;99303.63;;;14.72;80.66
65758;BME280;52495;52.208;5.158;2023-03-13T10:43:27;99312.34;;;14.85;78.27
65758;BME280;52495;52.208;5.158;2023-03-13T10:45:53;99302.53;;;14.91;76.37
65758;BME280;52495;52.208;5.158;2023-03-13T10:48:24;99308.72;;;14.88;76.38
65758;BME280;52495;52.208;5.158;2023-03-13T10:50:53;99300.28;;;14.84;77.06
65758;BME280;52495;52.208;5.158;2023-03-13T10:53:25;99298.78;;;14.80;77.70
65758;BME280;52495;52.208;5.158;2023-03-13T10:56:03;99300.38;;;14.83;78.23
65758;BME280;52495;52.208;5.158;2023-03-13T10:58:33;99300.00;;;14.89;76.83
65758;BME280;52495;52.208;5.158;2023-03-13T11:01:13;99299.63;;;14.95;74.28
65758;BME280;52495;52.208;5.158;2023-03-13T11:03:43;99265.19;;;15.06;73.29
65758;BME280;52495;52.208;5.158;2023-03-13T11:06:27;99285.81;;;15.09;72.57
65758;BME280;52495;52.208;5.158;2023-03-13T11:09:10;99301.31;;;15.11;71.10
65758;BME280;52495;52.208;5.158;2023-03-13T11:11:46;99291.66;;;15.13;71.23
65758;BME280;52495;52.208;5.158;2023-03-13T11:14:16;99282.63;;;15.18;71.54
65758;BME280;52495;52.208;5.158;2023-03-13T11:16:46;99289.22;;;15.24;71.69
65758;BME280;52495;52.208;5.158;2023-03-13T11:19:38;99282.25;;;15.25;71.20
65758;BME280;52495;52.208;5.158;2023-03-13T11:22:21;99277.88;;;15.25;70.64
65758;BME280;52495;52.208;5.158;2023-03-13T11:24:55;99294.22;;;15.27;71.37
65758;BME280;52495;52.208;5.158;2023-03-13T11:27:28;99281.22;;;15.27;70.93
65758;BME280;52495;52.208;5.158;2023-03-13T11:30:07;99273.06;;;15.33;70.14
65758;BME280;52495;52.208;5.158;2023-03-13T11:32:45;99271.53;;;15.44;69.75
65758;BME280;52495;52.208;5.158;2023-03-13T11:35:26;99274.50;;;15.52;67.34
65758;BME280;52495;52.208;5.158;2023-03-13T11:38:07;99271.00;;;15.66;66.12
65758;BME280;52495;52.208;5.158;2023-03-13T11:40:38;99272.78;;;15.66;65.64
65758;BME280;52495;52.208;5.158;2023-03-13T11:43:26;99263.94;;;15.68;66.14
65758;BME280;52495;52.208;5.158;2023-03-13T11:46:11;99273.22;;;15.72;65.75
65758;BME280;52495;52.208;5.158;2023-03-13T11:48:50;99285.88;;;15.64;65.49
65758;BME280;52495;52.208;5.158;2023-03-13T11:51:25;99269.75;;;15.59;66.02
65758;BME280;52495;52.208;5.158;2023-03-13T11:54:15;99267.88;;;15.61;66.53
65758;BME280;52495;52.208;5.158;2023-03-13T11:56:55;99265.81;;;15.66;65.87
65758;BME280;52495;52.208;5.158;2023-03-13T11:59:31;99270.50;;;15.74;65.72
65758;BME280;52495;52.208;5.158;2023-03-13T12:02:12;99261.19;;;15.84;63.90
65758;BME280;52495;52.208;5.158;2023-03-13T12:04:47;99296.16;;;15.80;62.68
65758;BME280;52495;52.208;5.158;2023-03-13T12:07:29;99264.56;;;15.86;62.24
65758;BME280;52495;52.208;5.158;2023-03-13T12:10:00;99267.81;;;15.90;61.26
65758;BME280;52495;52.208;5.158;2023-03-13T12:12:36;99265.41;;;15.87;60.21
65758;BME280;52495;52.208;5.158;2023-03-13T12:15:15;99272.69;;;15.95;61.27
65758;BME280;52495;52.208;5.158;2023-03-13T12:17:48;99261.91;;;16.01;61.59
65758;BME280;52495;52.208;5.158;2023-03-13T12:20:25;99261.59;;;16.05;60.65
65758;BME280;52495;52.208;5.158;2023-03-13T12:23:02;99248.25;;;16.10;61.02
65758;BME280;52495;52.208;5.158;2023-03-13T12:25:36;99249.94;;;16.11;60.01
65758;BME280;52495;52.208;5.158;2023-03-13T12:31:10;99248.19;;;16.24;60.44
65758;BME280;52495;52.208;5.158;2023-03-13T12:33:43;99241.81;;;16.16;60.35
65758;BME280;52495;52.208;5.158;2023-03-13T12:36:16;99253.66;;;16.07;58.80
65758;BME280;52495;52.208;5.158;2023-03-13T12:38:50;99229.72;;;16.02;58.36
65758;BME280;52495;52.208;5.158;2023-03-13T12:41:25;99239.22;;;16.03;58.73
65758;BME280;52495;52.208;5.158;2023-03-13T12:43:54;99230.13;;;15.96;58.77
65758;BME280;52495;52.208;5.158;2023-03-13T12:46:33;99230.44;;;15.91;59.35
65758;BME280;52495;52.208;5.158;2023-03-13T12:49:22;99225.31;;;15.89;59.21
65758;BME280;52495;52.208;5.158;2023-03-13T12:54:55;99219.16;;;15.63;62.01
65758;BME280;52495;52.208;5.158;2023-03-13T12:57:50;99217.56;;;15.47;62.31
65758;BME280;52495;52.208;5.158;2023-03-13T13:00:25;99206.81;;;15.39;62.38
65758;BME280;52495;52.208;5.158;2023-03-13T13:03:17;99202.66;;;15.37;61.39
65758;BME280;52495;52.208;5.158;2023-03-13T13:06:01;99193.81;;;15.39;61.56
65758;BME280;52495;52.208;5.158;2023-03-13T13:08:33;99220.69;;;15.53;60.84
65758;BME280;52495;52.208;5.158;2023-03-13T13:11:38;99192.94;;;15.53;60.89
65758;BME280;52495;52.208;5.158;2023-03-13T13:20:45;99184.28;;;15.25;63.30
65758;BME280;52495;52.208;5.158;2023-03-13T13:23:24;99180.00;;;15.24;63.91
65758;BME280;52495;52.208;5.158;2023-03-13T13:32:42;99193.47;;;15.31;61.55
65758;BME280;52495;52.208;5.158;2023-03-13T13:35:30;99179.34;;;15.35;61.88
65758;BME280;52495;52.208;5.158;2023-03-13T13:38:24;99178.03;;;15.42;61.22
65758;BME280;52495;52.208;5.158;2023-03-13T13:40:58;99174.38;;;15.45;60.08